createdAt,value
2022-09-06T00:00:40.812Z,65.83
2022-09-06T00:01:40.492Z,65.83
2022-09-06T00:02:40.557Z,65.86
2022-09-06T00:03:40.495Z,65.83
2022-09-06T00:04:40.461Z,65.86
2022-09-06T00:05:40.461Z,65.52
2022-09-06T00:06:40.649Z,65.75
2022-09-06T00:07:40.443Z,65.95
2022-09-06T00:08:40.415Z,66.25
2022-09-06T00:09:40.416Z,66.16
2022-09-06T00:10:40.385Z,66.16
2022-09-06T00:11:40.729Z,65.95
2022-09-06T00:12:40.367Z,65.75
2022-09-06T00:13:40.370Z,65.75
2022-09-06T00:14:40.350Z,65.86
2022-09-06T00:15:40.587Z,65.75
2022-09-06T00:16:40.322Z,65.86
2022-09-06T00:17:40.547Z,65.75
2022-09-06T00:18:40.287Z,65.66
2022-09-06T00:19:40.279Z,65.66
2022-09-06T00:20:40.303Z,65.66
2022-09-06T00:21:40.265Z,65.75
2022-09-06T00:22:40.248Z,65.75
2022-09-06T00:23:40.564Z,65.45
2022-09-06T00:24:40.221Z,65.45
2022-09-06T00:25:40.229Z,65.55
2022-09-06T00:26:40.213Z,65.36
2022-09-06T00:27:40.181Z,65.45
2022-09-06T00:28:40.173Z,65.45
2022-09-06T00:29:40.492Z,65.36
2022-09-06T00:30:40.182Z,65.36
2022-09-06T00:31:40.133Z,65.45
2022-09-06T00:32:40.141Z,65.55
2022-09-06T00:33:40.126Z,65.55
2022-09-06T00:34:40.117Z,65.75
2022-09-06T00:35:40.369Z,65.75
2022-09-06T00:36:40.075Z,65.86
2022-09-06T00:37:40.089Z,65.86
2022-09-06T00:38:40.069Z,65.86
2022-09-06T00:39:40.131Z,65.86
2022-09-06T00:40:40.390Z,65.95
2022-09-06T00:41:40.017Z,65.99
2022-09-06T00:42:40.008Z,65.99
2022-09-06T00:43:40.015Z,66.09
2022-09-06T00:44:39.989Z,66.19
2022-09-06T00:45:39.982Z,66.28
2022-09-06T00:46:40.317Z,66.09
2022-09-06T00:47:39.951Z,65.99
2022-09-06T00:48:39.940Z,66.09
2022-09-06T00:49:39.920Z,65.99
2022-09-06T00:50:39.933Z,65.89
2022-09-06T00:51:39.900Z,65.99
2022-09-06T00:52:40.110Z,65.89
2022-09-06T00:53:39.884Z,65.89
2022-09-06T00:54:39.878Z,65.89
2022-09-06T00:55:39.865Z,65.89
2022-09-06T00:56:39.841Z,65.99
2022-09-06T00:57:39.866Z,66.09
2022-09-06T00:58:39.835Z,66.09
2022-09-06T00:59:39.819Z,65.99
2022-09-06T01:00:39.807Z,65.89
2022-09-06T01:01:39.888Z,65.78
2022-09-06T01:02:39.888Z,65.69
2022-09-06T01:03:39.774Z,65.59
2022-09-06T01:04:39.767Z,65.69
2022-09-06T01:05:39.745Z,65.48
2022-09-06T01:06:39.739Z,65.39
2022-09-06T01:07:39.705Z,65.39
2022-09-06T01:08:39.706Z,65.39
2022-09-06T01:09:40.000Z,65.28
2022-09-06T01:10:39.677Z,65.28
2022-09-06T01:11:39.667Z,65.19
2022-09-06T01:12:39.657Z,65.19
2022-09-06T01:13:39.652Z,65.28
2022-09-06T01:14:39.629Z,65.19
2022-09-06T01:15:39.933Z,65.69
2022-09-06T01:16:39.623Z,66.39
2022-09-06T01:17:39.650Z,67.29
2022-09-06T01:18:39.590Z,67.72
2022-09-06T01:19:39.596Z,67.82
2022-09-06T01:20:39.564Z,67.42
2022-09-06T01:21:39.854Z,67.22
2022-09-06T01:22:39.561Z,66.92
2022-09-06T01:23:39.532Z,67.32
2022-09-06T01:24:39.511Z,67.82
2022-09-06T01:25:39.824Z,67.82
2022-09-06T01:26:39.483Z,67.72
2022-09-06T01:27:39.485Z,67.22
2022-09-06T01:28:39.476Z,67.22
2022-09-06T01:29:39.623Z,67.02
2022-09-06T01:30:39.460Z,66.62
2022-09-06T01:31:39.425Z,66.42
2022-09-06T01:32:39.417Z,66.52
2022-09-06T01:33:39.403Z,66.69
2022-09-06T01:34:39.646Z,66.19
2022-09-06T01:35:39.390Z,65.89
2022-09-06T01:36:49.689Z,66.09
2022-09-06T01:37:40.353Z,66.28
2022-09-06T01:39:30.823Z,66.09
2022-09-06T01:40:30.567Z,65.89
2022-09-06T01:41:30.525Z,65.78
2022-09-06T01:42:30.538Z,65.89
2022-09-06T01:43:30.812Z,65.39
2022-09-06T01:44:30.496Z,65.69
2022-09-06T01:45:30.496Z,65.39
2022-09-06T01:46:30.752Z,63.75
2022-09-06T01:47:30.480Z,62.45
2022-09-06T01:48:30.472Z,62.15
2022-09-06T01:49:30.442Z,61.75
2022-09-06T01:50:30.451Z,61.45
2022-09-06T01:51:30.422Z,61.55
2022-09-06T01:52:30.713Z,60.95
2022-09-06T01:53:30.388Z,60.82
2022-09-06T01:54:30.393Z,60.62
2022-09-06T01:55:30.370Z,60.72
2022-09-06T01:56:30.363Z,60.42
2022-09-06T01:57:30.341Z,60.32
2022-09-06T01:58:30.555Z,60.42
2022-09-06T01:59:30.338Z,60.02
2022-09-06T02:00:30.323Z,60.32
2022-09-06T02:01:30.587Z,60.42
2022-09-06T02:02:30.352Z,60.02
2022-09-06T02:03:30.289Z,60.02
2022-09-06T02:04:30.264Z,59.59
2022-09-06T02:05:30.267Z,60.19
2022-09-06T02:06:30.255Z,60.10
2022-09-06T02:07:30.433Z,60.19
2022-09-06T02:08:30.228Z,60.10
2022-09-06T02:09:30.218Z,59.99
2022-09-06T02:10:30.217Z,59.89
2022-09-06T02:11:30.391Z,59.79
2022-09-06T02:12:30.397Z,59.89
2022-09-06T02:13:30.156Z,59.69
2022-09-06T02:14:30.160Z,59.79
2022-09-06T02:15:30.140Z,59.89
2022-09-06T02:16:30.242Z,60.29
2022-09-06T02:17:30.391Z,60.39
2022-09-06T02:18:30.109Z,60.59
2022-09-06T02:19:30.101Z,60.89
2022-09-06T02:20:30.102Z,61.09
2022-09-06T02:21:30.329Z,61.40
2022-09-06T02:22:30.107Z,61.59
2022-09-06T02:23:30.152Z,61.69
2022-09-06T02:24:30.077Z,61.79
2022-09-06T02:25:30.052Z,61.89
2022-09-06T02:26:30.014Z,62.19
2022-09-06T02:27:31.212Z,62.39
2022-09-06T02:28:30.008Z,62.70
2022-09-06T02:29:29.977Z,62.70
2022-09-06T02:30:30.047Z,62.89
2022-09-06T02:31:29.956Z,62.99
2022-09-06T02:32:30.298Z,63.19
2022-09-06T02:33:29.934Z,63.29
2022-09-06T02:34:29.943Z,63.49
2022-09-06T02:35:29.934Z,63.49
2022-09-06T02:36:29.915Z,63.69
2022-09-06T02:37:30.213Z,63.69
2022-09-06T02:38:29.916Z,63.82
2022-09-06T02:39:30.209Z,63.82
2022-09-06T02:40:30.167Z,63.92
2022-09-06T02:41:31.303Z,64.03
2022-09-06T02:42:29.840Z,64.03
2022-09-06T02:43:29.815Z,64.22
2022-09-06T02:44:30.130Z,64.12
2022-09-06T02:45:29.798Z,64.32
2022-09-06T02:46:29.821Z,64.52
2022-09-06T02:47:29.783Z,64.52
2022-09-06T02:48:29.759Z,64.62
2022-09-06T02:49:29.761Z,64.62
2022-09-06T02:50:29.941Z,64.83
2022-09-06T02:51:30.039Z,65.02
2022-09-06T02:52:29.733Z,65.22
2022-09-06T02:53:29.701Z,65.33
2022-09-06T02:54:29.715Z,65.52
2022-09-06T02:55:29.694Z,65.62
2022-09-06T02:56:29.676Z,65.72
2022-09-06T02:57:29.883Z,65.66
2022-09-06T02:58:29.666Z,65.75
2022-09-06T02:59:29.631Z,65.95
2022-09-06T03:00:29.630Z,66.05
2022-09-06T03:01:29.651Z,66.16
2022-09-06T03:02:29.656Z,66.25
2022-09-06T03:03:29.795Z,66.25
2022-09-06T03:04:29.598Z,66.36
2022-09-06T03:05:29.565Z,66.42
2022-09-06T03:06:29.555Z,66.32
2022-09-06T03:07:29.549Z,66.32
2022-09-06T03:08:29.534Z,66.32
2022-09-06T03:09:29.829Z,66.32
2022-09-06T03:10:29.507Z,66.42
2022-09-06T03:11:29.512Z,66.72
2022-09-06T03:12:29.486Z,66.46
2022-09-06T03:13:29.483Z,66.46
2022-09-06T03:14:29.461Z,66.55
2022-09-06T03:15:29.679Z,66.55
2022-09-06T03:16:29.464Z,66.66
2022-09-06T03:17:29.429Z,66.75
2022-09-06T03:18:29.504Z,66.86
2022-09-06T03:19:29.408Z,66.96
2022-09-06T03:20:31.015Z,66.96
2022-09-06T03:21:29.681Z,66.96
2022-09-06T03:22:29.382Z,67.05
2022-09-06T03:23:29.375Z,67.25
2022-09-06T03:24:29.655Z,67.22
2022-09-06T03:25:29.346Z,67.52
2022-09-06T03:26:29.322Z,67.43
2022-09-06T03:27:29.317Z,67.93
2022-09-06T03:28:29.389Z,68.02
2022-09-06T03:29:29.295Z,67.72
2022-09-06T03:30:29.616Z,67.72
2022-09-06T03:31:29.273Z,67.72
2022-09-06T03:32:29.255Z,67.93
2022-09-06T03:33:29.258Z,68.02
2022-09-06T03:34:29.239Z,68.23
2022-09-06T03:35:29.217Z,68.13
2022-09-06T03:36:29.486Z,68.13
2022-09-06T03:37:29.216Z,68.02
2022-09-06T03:38:29.283Z,68.02
2022-09-06T03:39:29.202Z,68.13
2022-09-06T03:40:29.180Z,68.02
2022-09-06T03:41:29.161Z,68.23
2022-09-06T03:42:29.171Z,68.13
2022-09-06T03:43:29.131Z,68.23
2022-09-06T03:44:29.109Z,68.13
2022-09-06T03:45:29.613Z,67.93
2022-09-06T03:46:29.090Z,67.82
2022-09-06T03:47:29.105Z,67.93
2022-09-06T03:48:29.203Z,67.52
2022-09-06T03:49:29.321Z,67.72
2022-09-06T03:50:29.044Z,67.72
2022-09-06T03:51:29.043Z,67.66
2022-09-06T03:52:29.022Z,67.66
2022-09-06T03:53:29.226Z,67.66
2022-09-06T03:54:28.995Z,67.46
2022-09-06T03:55:28.992Z,67.46
2022-09-06T03:56:28.987Z,67.46
2022-09-06T03:57:28.979Z,67.36
2022-09-06T03:58:29.041Z,67.46
2022-09-06T03:59:29.238Z,67.66
2022-09-06T04:00:28.939Z,67.86
2022-09-06T04:01:28.979Z,67.66
2022-09-06T04:02:28.964Z,67.66
2022-09-06T04:03:28.896Z,67.66
2022-09-06T04:04:29.221Z,67.66
2022-09-06T04:05:28.889Z,67.55
2022-09-06T04:06:28.873Z,67.46
2022-09-06T04:07:28.861Z,67.46
2022-09-06T04:08:28.977Z,67.36
2022-09-06T04:09:28.842Z,67.36
2022-09-06T04:10:29.119Z,67.36
2022-09-06T04:11:28.832Z,67.36
2022-09-06T04:12:28.793Z,67.36
2022-09-06T04:13:28.783Z,67.16
2022-09-06T04:14:28.760Z,67.09
2022-09-06T04:15:28.776Z,66.69
2022-09-06T04:16:29.093Z,66.19
2022-09-06T04:17:28.732Z,66.09
2022-09-06T04:18:28.876Z,66.19
2022-09-06T04:19:28.726Z,66.69
2022-09-06T04:20:28.705Z,66.78
2022-09-06T04:21:28.956Z,67.29
2022-09-06T04:22:28.689Z,67.09
2022-09-06T04:23:28.674Z,67.19
2022-09-06T04:24:28.659Z,67.29
2022-09-06T04:25:28.643Z,67.49
2022-09-06T04:26:28.934Z,67.59
2022-09-06T04:27:28.616Z,67.39
2022-09-06T04:28:28.794Z,67.49
2022-09-06T04:29:28.607Z,67.89
2022-09-06T04:30:28.578Z,67.99
2022-09-06T04:31:28.930Z,68.69
2022-09-06T04:32:28.804Z,68.69
2022-09-06T04:33:28.581Z,69.19
2022-09-06T04:34:28.555Z,68.59
2022-09-06T04:35:28.528Z,68.49
2022-09-06T04:36:28.536Z,68.69
2022-09-06T04:37:28.533Z,69.09
2022-09-06T04:38:28.964Z,69.29
2022-09-06T04:39:28.538Z,69.09
2022-09-06T04:40:28.740Z,68.99
2022-09-06T04:41:28.464Z,69.19
2022-09-06T04:42:28.453Z,69.09
2022-09-06T04:43:28.445Z,68.89
2022-09-06T04:44:28.421Z,68.79
2022-09-06T04:45:28.492Z,69.09
2022-09-06T04:46:28.665Z,69.19
2022-09-06T04:47:28.386Z,69.09
2022-09-06T04:48:28.528Z,69.09
2022-09-06T04:49:28.353Z,68.99
2022-09-06T04:50:28.364Z,68.99
2022-09-06T04:51:28.334Z,68.89
2022-09-06T04:52:30.380Z,68.79
2022-09-06T04:53:28.327Z,68.69
2022-09-06T04:54:28.294Z,68.69
2022-09-06T04:55:28.298Z,68.79
2022-09-06T04:56:28.288Z,68.39
2022-09-06T04:57:28.299Z,68.59
2022-09-06T04:58:28.286Z,68.49
2022-09-06T04:59:28.253Z,68.59
2022-09-06T05:00:28.246Z,68.42
2022-09-06T05:01:28.258Z,68.62
2022-09-06T05:02:28.266Z,68.59
2022-09-06T05:03:28.218Z,68.79
2022-09-06T05:04:28.193Z,68.89
2022-09-06T05:05:28.172Z,68.69
2022-09-06T05:06:28.160Z,68.79
2022-09-06T05:07:28.162Z,68.79
2022-09-06T05:08:28.225Z,68.79
2022-09-06T05:09:28.430Z,68.62
2022-09-06T05:10:28.111Z,68.62
2022-09-06T05:11:28.121Z,68.62
2022-09-06T05:12:28.095Z,68.62
2022-09-06T05:13:28.082Z,68.62
2022-09-06T05:14:28.070Z,68.73
2022-09-06T05:15:28.077Z,68.82
2022-09-06T05:16:28.113Z,68.82
2022-09-06T05:17:28.044Z,68.79
2022-09-06T05:18:28.207Z,68.59
2022-09-06T05:19:28.016Z,68.79
2022-09-06T05:20:27.996Z,68.79
2022-09-06T05:21:28.005Z,68.79
2022-09-06T05:22:27.964Z,68.79
2022-09-06T05:23:27.985Z,69.19
2022-09-06T05:24:27.942Z,68.99
2022-09-06T05:25:27.945Z,68.99
2022-09-06T05:26:28.218Z,69.32
2022-09-06T05:27:27.946Z,69.23
2022-09-06T05:28:28.072Z,69.23
2022-09-06T05:29:30.610Z,69.42
2022-09-06T05:30:27.867Z,69.53
2022-09-06T05:31:27.959Z,69.53
2022-09-06T05:32:28.128Z,69.62
2022-09-06T05:33:27.869Z,69.53
2022-09-06T05:34:28.054Z,69.62
2022-09-06T05:35:27.819Z,69.73
2022-09-06T05:36:27.822Z,69.82
2022-09-06T05:37:27.804Z,69.89
2022-09-06T05:38:29.753Z,69.69
2022-09-06T05:39:27.793Z,69.79
2022-09-06T05:40:27.763Z,69.79
2022-09-06T05:41:27.754Z,69.49
2022-09-06T05:42:27.731Z,69.49
2022-09-06T05:43:27.722Z,69.39
2022-09-06T05:44:27.972Z,69.19
2022-09-06T05:45:27.767Z,69.19
2022-09-06T05:46:27.693Z,69.39
2022-09-06T05:47:27.688Z,69.59
2022-09-06T05:48:27.800Z,69.59
2022-09-06T05:49:27.972Z,69.59
2022-09-06T05:50:27.662Z,69.49
2022-09-06T05:51:27.634Z,69.49
2022-09-06T05:52:27.615Z,69.39
2022-09-06T05:53:27.643Z,69.49
2022-09-06T05:54:27.607Z,69.69
2022-09-06T05:55:27.605Z,69.39
2022-09-06T05:56:27.589Z,69.29
2022-09-06T05:57:27.580Z,69.29
2022-09-06T05:58:27.640Z,69.39
2022-09-06T05:59:27.551Z,69.29
2022-09-06T06:00:27.520Z,69.09
2022-09-06T06:01:27.951Z,69.19
2022-09-06T06:02:27.546Z,69.19
2022-09-06T06:03:27.502Z,69.29
2022-09-06T06:04:27.471Z,69.39
2022-09-06T06:05:27.501Z,69.49
2022-09-06T06:06:27.450Z,69.49
2022-09-06T06:07:27.441Z,69.49
2022-09-06T06:08:27.619Z,69.59
2022-09-06T06:09:27.422Z,69.49
2022-09-06T06:10:27.431Z,69.59
2022-09-06T06:11:27.655Z,69.89
2022-09-06T06:12:27.396Z,69.59
2022-09-06T06:13:27.372Z,69.59
2022-09-06T06:14:27.354Z,69.49
2022-09-06T06:15:27.345Z,69.59
2022-09-06T06:16:27.419Z,69.79
2022-09-06T06:17:27.639Z,69.49
2022-09-06T06:18:27.374Z,69.39
2022-09-06T06:19:27.317Z,69.39
2022-09-06T06:20:27.293Z,69.46
2022-09-06T06:21:27.276Z,69.46
2022-09-06T06:22:27.285Z,69.36
2022-09-06T06:23:27.457Z,69.36
2022-09-06T06:24:27.237Z,69.16
2022-09-06T06:25:27.234Z,69.16
2022-09-06T06:26:27.427Z,69.16
2022-09-06T06:27:27.215Z,69.06
2022-09-06T06:28:27.252Z,69.16
2022-09-06T06:29:27.178Z,69.36
2022-09-06T06:30:27.191Z,69.36
2022-09-06T06:31:27.210Z,69.46
2022-09-06T06:32:27.399Z,69.46
2022-09-06T06:33:27.480Z,69.36
2022-09-06T06:34:27.125Z,69.46
2022-09-06T06:35:27.110Z,69.36
2022-09-06T06:36:27.100Z,69.36
2022-09-06T06:37:27.105Z,69.26
2022-09-06T06:38:27.192Z,69.36
2022-09-06T06:39:27.314Z,69.16
2022-09-06T06:40:27.086Z,69.06
2022-09-06T06:41:27.055Z,68.96
2022-09-06T06:42:27.053Z,68.96
2022-09-06T06:43:27.037Z,68.86
2022-09-06T06:44:27.296Z,68.66
2022-09-06T06:45:27.029Z,68.86
2022-09-06T06:46:27.209Z,68.76
2022-09-06T06:47:26.988Z,68.82
2022-09-06T06:48:27.065Z,68.82
2022-09-06T06:49:26.967Z,68.82
2022-09-06T06:50:26.974Z,68.82
2022-09-06T06:51:26.926Z,68.93
2022-09-06T06:52:27.114Z,68.93
2022-09-06T06:53:26.918Z,68.82
2022-09-06T06:54:26.911Z,68.82
2022-09-06T06:55:26.901Z,68.82
2022-09-06T06:56:26.892Z,68.82
2022-09-06T06:57:27.092Z,68.73
2022-09-06T06:58:27.095Z,68.73
2022-09-06T06:59:26.829Z,68.59
2022-09-06T07:00:28.324Z,68.59
2022-09-06T07:01:27.234Z,68.59
2022-09-06T07:02:27.067Z,68.49
2022-09-06T07:03:26.803Z,68.29
2022-09-06T07:04:26.794Z,68.39
2022-09-06T07:08:26.813Z,68.06
2022-09-06T07:09:26.768Z,67.96
2022-09-06T07:10:34.288Z,67.76
2022-09-06T07:11:27.715Z,67.66
2022-09-06T07:12:26.698Z,67.46
2022-09-06T07:13:27.048Z,67.46
2022-09-06T07:14:26.671Z,67.33
2022-09-06T07:15:26.668Z,67.43
2022-09-06T07:16:26.675Z,67.33
2022-09-06T07:17:26.636Z,67.23
2022-09-06T07:18:26.630Z,66.93
2022-09-06T07:20:27.948Z,66.80
2022-09-06T07:21:41.908Z,66.70
2022-09-06T07:22:27.835Z,66.60
2022-09-06T07:24:27.539Z,66.30
2022-09-06T07:25:26.552Z,66.30
2022-09-06T07:26:26.540Z,66.17
2022-09-06T07:28:27.646Z,66.17
2022-09-06T07:29:26.703Z,65.97
2022-09-06T07:30:26.479Z,65.87
2022-09-06T07:32:27.454Z,65.47
2022-09-06T07:33:26.497Z,65.34
2022-09-06T07:34:26.647Z,65.14
2022-09-06T07:35:26.731Z,64.94
2022-09-06T07:36:26.425Z,64.94
2022-09-06T07:37:26.513Z,65.04
2022-09-06T07:38:26.384Z,64.81
2022-09-06T07:39:26.727Z,64.71
2022-09-06T07:40:26.383Z,64.51
2022-09-06T07:41:26.367Z,64.41
2022-09-06T07:42:26.335Z,64.41
2022-09-06T07:43:26.378Z,64.07
2022-09-06T07:44:26.336Z,63.68
2022-09-06T07:45:26.321Z,63.68
2022-09-06T07:46:26.348Z,63.58
2022-09-06T07:48:27.361Z,63.38
2022-09-06T07:49:26.257Z,62.85
2022-09-06T07:51:27.269Z,62.35
2022-09-06T07:53:31.082Z,61.93
2022-09-06T07:54:30.339Z,61.83
2022-09-06T07:55:26.190Z,61.53
2022-09-06T07:56:26.194Z,61.33
2022-09-06T07:57:26.191Z,61.20
2022-09-06T07:58:26.160Z,61.10
2022-09-06T07:59:26.152Z,61.20
2022-09-06T08:00:26.132Z,61.00
2022-09-06T08:01:26.184Z,60.90
2022-09-06T08:02:26.172Z,61.10
2022-09-06T08:03:26.443Z,60.57
2022-09-06T08:04:26.104Z,60.27
2022-09-06T08:06:27.065Z,60.27
2022-09-06T08:07:41.270Z,60.08
2022-09-06T08:09:27.338Z,59.55
2022-09-06T08:10:26.024Z,59.65
2022-09-06T08:11:26.216Z,59.35
2022-09-06T08:12:26.010Z,58.92
2022-09-06T08:13:26.031Z,58.83
2022-09-06T08:14:25.998Z,58.43
2022-09-06T08:15:25.988Z,57.93
2022-09-06T08:16:25.995Z,57.83
2022-09-06T08:17:26.146Z,57.51
2022-09-06T08:18:25.931Z,57.51
2022-09-06T08:19:25.929Z,56.81
2022-09-06T08:20:25.909Z,56.51
2022-09-06T08:21:25.902Z,56.51
2022-09-06T08:22:26.190Z,56.41
2022-09-06T08:23:25.919Z,56.09
2022-09-06T08:24:25.886Z,55.89
2022-09-06T08:25:25.892Z,56.09
2022-09-06T08:26:25.848Z,55.29
2022-09-06T08:27:25.837Z,55.69
2022-09-06T08:28:28.794Z,55.36
2022-09-06T08:29:25.794Z,55.27
2022-09-06T08:30:25.814Z,55.07
2022-09-06T08:31:25.823Z,54.47
2022-09-06T08:32:25.808Z,53.98
2022-09-06T08:33:25.844Z,53.88
2022-09-06T08:34:25.745Z,53.96
2022-09-06T08:35:25.730Z,53.96
2022-09-06T08:36:25.728Z,54.25
2022-09-06T08:37:25.720Z,54.25
2022-09-06T08:38:26.029Z,53.63
2022-09-06T08:39:25.723Z,53.43
2022-09-06T08:40:25.691Z,53.23
2022-09-06T08:41:25.659Z,52.84
2022-09-06T08:42:25.671Z,52.54
2022-09-06T08:43:25.659Z,52.44
2022-09-06T08:45:26.619Z,52.73
2022-09-06T08:46:25.633Z,52.04
2022-09-06T08:47:25.602Z,52.24
2022-09-06T08:48:25.639Z,52.22
2022-09-06T08:49:25.583Z,52.31
2022-09-06T08:50:25.582Z,52.51
2022-09-06T08:51:25.553Z,52.02
2022-09-06T08:52:25.543Z,51.82
2022-09-06T08:53:25.533Z,51.72
2022-09-06T08:54:25.723Z,51.72
2022-09-06T08:55:25.508Z,51.89
2022-09-06T08:56:25.495Z,51.70
2022-09-06T08:57:25.498Z,51.89
2022-09-06T08:58:25.745Z,51.60
2022-09-06T08:59:25.466Z,51.60
2022-09-06T09:00:25.501Z,51.50
2022-09-06T09:01:25.483Z,51.20
2022-09-06T09:02:25.519Z,51.40
2022-09-06T09:03:25.431Z,51.20
2022-09-06T09:04:25.688Z,51.70
2022-09-06T09:05:25.389Z,51.50
2022-09-06T09:06:25.403Z,51.77
2022-09-06T09:07:25.382Z,51.57
2022-09-06T09:08:25.364Z,51.37
2022-09-06T09:09:25.683Z,51.18
2022-09-06T09:10:25.354Z,51.28
2022-09-06T09:11:25.364Z,51.47
2022-09-06T09:12:25.333Z,51.47
2022-09-06T09:13:25.331Z,51.47
2022-09-06T09:14:25.309Z,51.18
2022-09-06T09:15:25.296Z,51.18
2022-09-06T09:16:25.627Z,51.37
2022-09-06T09:17:25.587Z,51.07
2022-09-06T09:18:25.253Z,50.56
2022-09-06T09:19:25.235Z,50.85
2022-09-06T09:20:25.237Z,51.15
2022-09-06T09:21:30.164Z,49.37
2022-09-06T09:22:26.479Z,49.37
2022-09-06T09:23:25.199Z,49.89
2022-09-06T09:24:25.230Z,50.18
2022-09-06T09:25:25.182Z,50.29
2022-09-06T09:26:25.170Z,49.89
2022-09-06T09:27:25.160Z,49.77
2022-09-06T09:28:25.376Z,49.96
2022-09-06T09:29:28.783Z,49.77
2022-09-06T09:31:26.156Z,49.96
2022-09-06T09:32:25.091Z,49.47
2022-09-06T09:33:25.449Z,49.37
2022-09-06T09:34:25.082Z,49.17
2022-09-06T09:35:25.059Z,48.77
2022-09-06T09:36:25.041Z,49.07
2022-09-06T09:38:26.083Z,49.57
2022-09-06T09:39:25.237Z,49.57
2022-09-06T09:40:25.006Z,49.54
2022-09-06T09:41:24.976Z,49.15
2022-09-06T09:42:24.988Z,48.68
2022-09-06T09:43:24.962Z,48.58
2022-09-06T09:44:24.968Z,48.77
2022-09-06T09:45:25.270Z,48.97
2022-09-06T09:46:24.972Z,48.97
2022-09-06T09:47:24.927Z,48.95
2022-09-06T09:48:24.970Z,49.05
2022-09-06T09:49:24.896Z,48.55
2022-09-06T09:50:24.918Z,48.65
2022-09-06T09:51:27.505Z,48.55
2022-09-06T09:52:24.873Z,48.85
2022-09-06T09:53:24.848Z,48.95
2022-09-06T09:54:24.837Z,48.85
2022-09-06T09:55:25.131Z,48.93
2022-09-06T09:56:24.834Z,49.02
2022-09-06T09:57:24.801Z,48.83
2022-09-06T09:58:24.822Z,48.71
2022-09-06T09:59:24.786Z,48.51
2022-09-06T10:00:24.846Z,48.11
2022-09-06T10:01:25.086Z,48.24
2022-09-06T10:02:24.756Z,48.73
2022-09-06T10:03:25.081Z,48.63
2022-09-06T10:05:25.703Z,48.03
2022-09-06T10:07:25.698Z,48.41
2022-09-06T10:08:24.895Z,48.51
2022-09-06T10:09:24.669Z,48.61
2022-09-06T10:10:24.673Z,47.79
2022-09-06T10:11:24.636Z,47.50
2022-09-06T10:12:24.627Z,47.47
2022-09-06T10:13:24.839Z,47.57
2022-09-06T10:14:24.623Z,47.18
2022-09-06T10:15:24.602Z,47.18
2022-09-06T10:16:24.650Z,47.67
2022-09-06T10:17:24.774Z,47.28
2022-09-06T10:18:24.603Z,46.48
2022-09-06T10:19:24.548Z,46.81
2022-09-06T10:20:24.541Z,47.10
2022-09-06T10:21:24.530Z,47.22
2022-09-06T10:22:24.514Z,47.30
2022-09-06T10:25:24.559Z,47.20
2022-09-06T10:26:24.485Z,47.60
2022-09-06T10:27:24.468Z,47.99
2022-09-06T10:28:24.872Z,47.50
2022-09-06T10:29:24.732Z,47.67
2022-09-06T10:30:24.449Z,47.38
2022-09-06T10:31:24.485Z,46.88
2022-09-06T10:32:26.378Z,46.56
2022-09-06T10:33:24.408Z,46.76
2022-09-06T10:34:24.376Z,46.76
2022-09-06T10:35:24.378Z,46.76
2022-09-06T10:36:24.360Z,46.86
2022-09-06T10:37:24.347Z,46.47
2022-09-06T10:38:24.373Z,46.86
2022-09-06T10:39:24.370Z,46.56
2022-09-06T10:40:24.363Z,46.56
2022-09-06T10:41:24.312Z,46.47
2022-09-06T10:42:24.290Z,46.76
2022-09-06T10:43:24.481Z,46.76
2022-09-06T10:44:24.273Z,46.47
2022-09-06T10:45:24.266Z,46.56
2022-09-06T10:46:24.307Z,46.86
2022-09-06T10:47:24.232Z,46.86
2022-09-06T10:48:24.244Z,46.56
2022-09-06T10:49:24.423Z,45.97
2022-09-06T10:50:24.203Z,46.47
2022-09-06T10:51:24.186Z,46.47
2022-09-06T10:52:24.197Z,46.26
2022-09-06T10:53:24.165Z,46.56
2022-09-06T10:54:24.188Z,46.54
2022-09-06T10:55:24.166Z,46.44
2022-09-06T10:56:24.149Z,46.34
2022-09-06T10:58:25.286Z,45.75
2022-09-06T10:59:39.413Z,46.15
2022-09-06T11:00:25.158Z,46.44
2022-09-06T11:01:24.146Z,46.54
2022-09-06T11:02:24.224Z,46.64
2022-09-06T11:04:25.083Z,46.34
2022-09-06T11:05:39.470Z,46.54
2022-09-06T11:06:26.822Z,46.03
2022-09-06T11:07:24.011Z,46.62
2022-09-06T11:09:25.015Z,46.42
2022-09-06T11:10:24.015Z,46.42
2022-09-06T11:11:24.186Z,45.93
2022-09-06T11:12:23.963Z,46.25
2022-09-06T11:13:24.297Z,46.64
2022-09-06T11:14:23.957Z,46.64
2022-09-06T11:15:23.922Z,46.74
2022-09-06T11:16:24.028Z,46.94
2022-09-06T11:17:23.919Z,46.72
2022-09-06T11:18:24.077Z,46.22
2022-09-06T11:19:24.076Z,46.10
2022-09-06T11:20:26.461Z,45.71
2022-09-06T11:21:23.871Z,45.51
2022-09-06T11:22:23.850Z,45.61
2022-09-06T11:23:23.910Z,45.41
2022-09-06T11:24:24.145Z,45.02
2022-09-06T11:25:23.809Z,45.31
2022-09-06T11:26:23.822Z,45.61
2022-09-06T11:27:23.803Z,45.90
2022-09-06T11:28:23.804Z,45.90
2022-09-06T11:29:23.821Z,45.61
2022-09-06T11:30:23.759Z,45.61
2022-09-06T11:32:24.732Z,45.81
2022-09-06T11:33:23.823Z,45.41
2022-09-06T11:34:23.727Z,45.41
2022-09-06T11:35:23.725Z,45.51
2022-09-06T11:36:23.936Z,45.71
2022-09-06T11:37:23.674Z,45.90
2022-09-06T11:38:23.701Z,45.78
2022-09-06T11:41:23.947Z,45.49
2022-09-06T11:42:23.626Z,44.78
2022-09-06T11:43:23.757Z,44.98
2022-09-06T11:44:23.608Z,44.88
2022-09-06T11:45:23.601Z,44.78
2022-09-06T11:46:23.956Z,44.98
2022-09-06T11:47:23.582Z,45.17
2022-09-06T11:48:23.563Z,44.78
2022-09-06T11:49:23.555Z,45.17
2022-09-06T11:50:23.533Z,44.88
2022-09-06T11:51:23.544Z,44.88
2022-09-06T11:52:23.752Z,44.58
2022-09-06T11:53:23.657Z,44.68
2022-09-06T11:54:23.505Z,44.68
2022-09-06T11:55:23.490Z,44.88
2022-09-06T11:56:23.471Z,45.37
2022-09-06T11:57:23.455Z,44.29
2022-09-06T11:58:23.667Z,43.70
2022-09-06T11:59:23.447Z,43.60
2022-09-06T12:00:23.439Z,43.70
2022-09-06T12:01:23.449Z,43.99
2022-09-06T12:02:23.498Z,44.29
2022-09-06T12:04:24.391Z,44.36
2022-09-06T12:05:23.390Z,44.46
2022-09-06T12:06:23.373Z,44.17
2022-09-06T12:07:23.602Z,44.36
2022-09-06T12:08:23.515Z,43.68
2022-09-06T12:09:23.341Z,43.48
2022-09-06T12:10:23.325Z,43.57
2022-09-06T12:11:23.322Z,43.57
2022-09-06T12:12:23.601Z,43.38
2022-09-06T12:13:23.280Z,43.68
2022-09-06T12:14:23.261Z,43.57
2022-09-06T12:15:23.254Z,43.77
2022-09-06T12:16:23.276Z,43.68
2022-09-06T12:17:23.564Z,43.68
2022-09-06T12:18:23.308Z,43.77
2022-09-06T12:19:23.227Z,43.89
2022-09-06T12:20:23.264Z,43.99
2022-09-06T12:21:23.194Z,44.29
2022-09-06T12:22:23.199Z,44.21
2022-09-06T12:23:23.175Z,44.51
2022-09-06T12:24:23.170Z,44.48
2022-09-06T12:25:23.359Z,44.19
2022-09-06T12:26:23.138Z,44.19
2022-09-06T12:27:23.128Z,43.89
2022-09-06T12:28:23.261Z,44.09
2022-09-06T12:29:23.119Z,44.09
2022-09-06T12:30:23.301Z,44.09
2022-09-06T12:31:23.115Z,44.51
2022-09-06T12:32:23.071Z,44.80
2022-09-06T12:33:23.059Z,44.82
2022-09-06T12:34:23.060Z,45.02
2022-09-06T12:36:24.223Z,45.00
2022-09-06T12:37:23.012Z,44.31
2022-09-06T12:38:23.052Z,44.51
2022-09-06T12:39:37.434Z,44.19
2022-09-06T12:40:22.997Z,44.19
2022-09-06T12:41:22.975Z,44.09
2022-09-06T12:42:23.006Z,44.29
2022-09-06T12:43:22.956Z,44.17
2022-09-06T12:44:22.974Z,43.97
2022-09-06T12:45:27.239Z,43.97
2022-09-06T12:46:22.959Z,44.07
2022-09-06T12:47:22.913Z,44.24
2022-09-06T12:48:22.953Z,43.95
2022-09-06T12:49:22.916Z,43.65
2022-09-06T12:50:22.868Z,43.16
2022-09-06T12:51:22.878Z,43.46
2022-09-06T12:52:22.868Z,43.36
2022-09-06T12:53:23.612Z,43.06
2022-09-06T12:54:22.833Z,43.46
2022-09-06T12:55:22.811Z,43.36
2022-09-06T12:56:22.801Z,43.08
2022-09-06T12:57:22.806Z,43.18
2022-09-06T12:58:23.129Z,43.77
2022-09-06T12:59:22.763Z,43.77
2022-09-06T13:00:22.786Z,43.57
2022-09-06T13:01:22.979Z,43.28
2022-09-06T13:02:22.844Z,43.38
2022-09-06T13:03:22.736Z,43.18
2022-09-06T13:04:22.928Z,42.96
2022-09-06T13:05:22.695Z,43.26
2022-09-06T13:06:26.798Z,42.96
2022-09-06T13:07:22.676Z,43.36
2022-09-06T13:08:22.694Z,43.06
2022-09-06T13:09:22.656Z,43.06
2022-09-06T13:10:22.969Z,43.36
2022-09-06T13:11:22.652Z,43.55
2022-09-06T13:12:22.618Z,43.46
2022-09-06T13:13:22.618Z,43.46
2022-09-06T13:14:22.615Z,43.46
2022-09-06T13:15:22.590Z,43.36
2022-09-06T13:16:22.847Z,43.55
2022-09-06T13:17:22.567Z,43.65
2022-09-06T13:18:22.594Z,43.95
2022-09-06T13:19:22.560Z,43.85
2022-09-06T13:20:22.558Z,43.75